Time;durP1;ratioP1;P1;durP2;ratioP2;P2;SDS_P1;SDS_P2;PMS_P1;PMS_P2;Temp;Humidity;BMP_temperature;BMP_pressure;BME280_temperature;BME280_humidity;BME280_pressure;Samples;Min_cycle;Max_cycle;Signal;HPM_P1;HPM_P2
2023/06/26 00:01:44;;;;;;;9.73;8.40;;;;;;;21.86;100.00;101444.88;5051448;28;20272;-74
2023/06/26 00:04:14;;;;;;;11.37;9.10;;;;;;;22.23;100.00;101506.97;5055857;28;20226;-75
2023/06/26 00:06:40;;;;;;;9.87;8.60;;;;;;;22.10;100.00;101515.56;5051516;28;20237;-74
2023/06/26 00:09:05;;;;;;;10.53;9.43;;;;;;;21.50;100.00;101408.25;5050448;28;20497;-74
2023/06/26 00:11:33;;;;;;;9.13;8.23;;;;;;;22.14;100.00;101507.69;5047640;28;20203;-74
2023/06/26 00:14:00;;;;;;;9.97;8.97;;;;;;;21.05;100.00;101362.19;5048936;28;20270;-74
2023/06/26 00:16:26;;;;;;;12.03;10.13;;;;;;;21.93;100.00;101509.41;5049234;28;20445;-74
2023/06/26 00:18:52;;;;;;;12.07;9.40;;;;;;;21.86;100.00;101513.16;5049589;28;20917;-74
2023/06/26 00:21:18;;;;;;;13.53;10.57;;;;;;;21.91;100.00;101515.13;5050259;28;20473;-74
2023/06/26 00:23:44;;;;;;;10.67;9.60;;;;;;;21.86;100.00;101498.69;5050104;28;20497;-75
2023/06/26 00:26:10;;;;;;;10.23;9.23;;;;;;;21.53;100.00;101445.13;5048083;28;20444;-75
2023/06/26 00:28:35;;;;;;;11.80;9.60;;;;;;;21.77;100.00;101497.50;5051469;28;20187;-74
2023/06/26 00:31:00;;;;;;;10.50;9.60;;;;;;;21.92;100.00;101508.56;5049449;28;20976;-74
2023/06/26 00:33:26;;;;;;;14.40;10.17;;;;;;;21.65;100.00;101479.38;5048812;28;20199;-74
2023/06/26 00:35:51;;;;;;;12.13;10.40;;;;;;;21.76;100.00;101499.44;5046334;28;20274;-74
2023/06/26 00:38:17;;;;;;;11.67;10.53;;;;;;;20.79;100.00;101312.81;5052705;28;20201;-74
2023/06/26 00:40:43;;;;;;;12.13;10.80;;;;;;;21.43;100.00;101413.91;5047586;28;20211;-74
2023/06/26 00:43:08;;;;;;;10.90;9.90;;;;;;;21.62;100.00;101452.59;5049946;28;20198;-74
2023/06/26 00:45:34;;;;;;;11.80;10.47;;;;;;;20.67;100.00;101298.50;5050856;28;20466;-74
2023/06/26 00:47:59;;;;;;;11.30;10.07;;;;;;;21.08;100.00;101357.03;5049942;28;20663;-74
2023/06/26 00:50:26;;;;;;;10.70;9.70;;;;;;;21.52;100.00;101433.38;5068011;28;20210;-74
2023/06/26 00:52:52;;;;;;;13.27;10.97;;;;;;;21.43;100.00;101405.72;5047691;28;20193;-74
2023/06/26 00:55:17;;;;;;;11.27;10.00;;;;;;;21.71;100.00;101441.22;5047628;28;20437;-74
2023/06/26 00:57:45;;;;;;;12.53;11.20;;;;;;;21.56;100.00;101409.13;5049966;28;20656;-74
2023/06/26 01:00:12;;;;;;;12.27;10.70;;;;;;;21.20;100.00;101357.72;5049753;28;20187;-74
2023/06/26 01:02:38;;;;;;;12.20;10.37;;;;;;;21.39;100.00;101371.03;5047249;28;20456;-74
2023/06/26 01:05:06;;;;;;;11.17;10.00;;;;;;;21.39;100.00;101385.50;5047960;28;21028;-74
2023/06/26 01:07:36;;;;;;;10.50;9.50;;;;;;;21.32;100.00;101364.91;5049312;28;20441;-74
2023/06/26 01:10:03;;;;;;;11.00;10.00;;;;;;;21.53;100.00;101410.47;5083074;28;20437;-74
2023/06/26 01:12:30;;;;;;;14.50;10.17;;;;;;;21.16;100.00;101344.84;5067944;28;20466;-74
2023/06/26 01:14:55;;;;;;;10.80;9.80;;;;;;;21.50;100.00;101391.06;5049580;28;20442;-74
2023/06/26 01:17:21;;;;;;;16.20;11.53;;;;;;;21.53;100.00;101374.19;5048840;28;20448;-74
2023/06/26 01:19:48;;;;;;;11.70;10.60;;;;;;;21.71;100.00;101420.19;5051458;28;20187;-73
2023/06/26 01:22:26;;;;;;;11.63;10.43;;;;;;;21.38;100.00;101359.31;5050331;28;20502;-73
2023/06/26 01:25:10;;;;;;;12.50;11.30;;;;;;;21.72;100.00;101412.81;5047420;28;20472;-74
2023/06/26 01:27:36;;;;;;;11.10;10.00;;;;;;;21.44;100.00;101362.91;5044563;28;20966;-73
2023/06/26 01:30:04;;;;;;;11.67;10.57;;;;;;;21.70;100.00;101417.69;5047870;28;20511;-73
2023/06/26 01:32:31;;;;;;;11.70;10.30;;;;;;;21.71;100.00;101392.88;5049313;28;20474;-73
2023/06/26 01:34:57;;;;;;;11.47;10.37;;;;;;;21.70;100.00;101390.41;5050285;28;20522;-74
2023/06/26 01:37:23;;;;;;;13.00;10.40;;;;;;;21.69;100.00;101384.13;5048499;28;20937;-74
2023/06/26 01:39:48;;;;;;;13.63;11.77;;;;;;;21.65;100.00;101367.44;5046965;28;20476;-74
2023/06/26 01:42:14;;;;;;;12.90;11.60;;;;;;;21.56;100.00;101376.38;5050564;28;20250;-73
2023/06/26 01:44:45;;;;;;;10.20;9.20;;;;;;;20.67;100.00;101216.75;5048672;28;20317;-73
2023/06/26 01:47:17;;;;;;;11.53;10.27;;;;;;;21.57;100.00;101386.22;5052937;28;20178;-73
2023/06/26 01:50:05;;;;;;;10.70;9.50;;;;;;;20.92;100.00;101300.72;5051882;28;20438;-74
2023/06/26 01:52:42;;;;;;;11.53;10.33;;;;;;;21.51;100.00;101381.78;5054174;28;20465;-73
2023/06/26 01:55:26;;;;;;;11.37;10.30;;;;;;;21.54;100.00;101381.28;5054081;28;20935;-74
2023/06/26 01:57:55;;;;;;;11.63;10.43;;;;;;;21.50;100.00;101377.41;5053947;28;20437;-73
2023/06/26 02:00:22;;;;;;;12.10;10.87;;;;;;;21.55;100.00;101370.09;5050090;28;20469;-74
2023/06/26 02:02:47;;;;;;;12.50;11.20;;;;;;;21.45;100.00;101356.34;5051611;28;20445;-73
2023/06/26 02:05:13;;;;;;;12.70;11.07;;;;;;;20.70;100.00;101233.41;5060996;28;20974;-74
2023/06/26 02:07:39;;;;;;;11.97;10.77;;;;;;;21.70;100.00;101354.91;5056938;28;20238;-73
2023/06/26 02:10:05;;;;;;;11.60;10.40;;;;;;;21.59;100.00;101348.56;5056435;28;20445;-73
2023/06/26 02:12:31;;;;;;;9.93;8.97;;;;;;;21.65;100.00;101348.34;5054155;28;20215;-73
2023/06/26 02:14:56;;;;;;;10.00;9.00;;;;;;;21.43;100.00;101306.66;5049843;28;20437;-73
2023/06/26 02:17:21;;;;;;;12.00;10.53;;;;;;;21.63;100.00;101347.78;5053827;28;20191;-73
2023/06/26 02:19:47;;;;;;;12.07;10.23;;;;;;;21.75;100.00;101333.13;5052934;28;21091;-73
2023/06/26 02:22:16;;;;;;;11.13;9.97;;;;;;;21.44;100.00;101305.59;5054502;28;20602;-73
2023/06/26 02:24:43;;;;;;;11.53;10.20;;;;;;;21.61;100.00;101322.66;5050677;28;20268;-73
2023/06/26 02:27:09;;;;;;;10.80;9.70;;;;;;;21.26;100.00;101263.09;5053922;28;20948;-73
2023/06/26 02:29:34;;;;;;;10.40;9.40;;;;;;;21.37;100.00;101302.25;5051163;28;20437;-73
2023/06/26 02:32:00;;;;;;;10.30;9.30;;;;;;;20.84;100.00;101201.09;5049901;28;20465;-73
2023/06/26 02:34:25;;;;;;;10.70;9.60;;;;;;;20.65;100.00;101137.13;5053890;28;20182;-74
2023/06/26 02:36:54;;;;;;;10.27;9.17;;;;;;;21.74;100.00;101315.91;5057393;28;20199;-73
2023/06/26 02:39:19;;;;;;;11.63;9.80;;;;;;;21.24;100.00;101251.66;5058153;28;20756;-73
2023/06/26 02:41:45;;;;;;;10.67;9.57;;;;;;;20.91;100.00;101204.44;5057646;28;20519;-73
2023/06/26 02:44:12;;;;;;;10.53;9.43;;;;;;;20.99;100.00;101208.59;5059097;28;20214;-73
2023/06/26 02:46:37;;;;;;;10.73;9.63;;;;;;;21.68;100.00;101308.78;5059302;28;20229;-73
2023/06/26 02:49:03;;;;;;;11.73;9.97;;;;;;;21.61;100.00;101305.44;5056734;28;20925;-73
2023/06/26 02:51:28;;;;;;;10.80;9.70;;;;;;;21.13;100.00;101228.91;5057699;28;20212;-73
2023/06/26 02:53:54;;;;;;;11.17;9.80;;;;;;;21.16;100.00;101257.56;5058852;28;20190;-73
2023/06/26 02:56:19;;;;;;;12.00;9.60;;;;;;;21.02;100.00;101242.72;5057677;28;20198;-73
2023/06/26 02:58:44;;;;;;;10.33;9.33;;;;;;;20.85;100.00;101194.56;5057504;28;20186;-74
2023/06/26 03:01:10;;;;;;;12.23;10.77;;;;;;;21.42;100.00;101300.38;5055320;28;20241;-73
2023/06/26 03:03:40;;;;;;;10.33;9.33;;;;;;;21.49;100.00;101300.16;5057329;28;20549;-73
2023/06/26 03:06:07;;;;;;;10.90;9.70;;;;;;;21.04;100.00;101237.81;5053358;28;20184;-73
2023/06/26 03:08:33;;;;;;;10.40;9.23;;;;;;;21.17;100.00;101265.47;5054877;28;20422;-73
2023/06/26 03:10:58;;;;;;;11.27;10.17;;;;;;;21.43;100.00;101302.03;5051567;28;20464;-73
2023/06/26 03:13:23;;;;;;;13.00;10.33;;;;;;;21.33;100.00;101303.81;5052963;28;20550;-74
2023/06/26 03:15:49;;;;;;;12.07;9.80;;;;;;;20.68;100.00;101210.22;5054894;28;20180;-74
2023/06/26 03:18:14;;;;;;;10.83;9.73;;;;;;;20.18;100.00;101135.00;5052567;28;20251;-73
2023/06/26 03:20:40;;;;;;;10.57;9.47;;;;;;;21.25;100.00;101324.22;5048484;28;20713;-73
2023/06/26 03:23:05;;;;;;;12.00;10.87;;;;;;;21.30;100.00;101321.53;5046711;28;20214;-72
2023/06/26 03:25:30;;;;;;;11.17;10.07;;;;;;;20.60;100.00;101216.97;5052082;28;20779;-73
2023/06/26 03:27:56;;;;;;;11.33;9.77;;;;;;;20.99;100.00;101263.94;5048055;28;20179;-73
2023/06/26 03:30:21;;;;;;;11.20;10.00;;;;;;;21.25;100.00;101317.94;5047973;28;20192;-73
2023/06/26 03:32:47;;;;;;;11.73;10.53;;;;;;;21.16;100.00;101321.13;5053196;28;20191;-73
2023/06/26 03:35:12;;;;;;;12.10;10.80;;;;;;;20.57;100.00;101274.69;5053847;28;20194;-73
2023/06/26 03:37:38;;;;;;;11.40;10.07;;;;;;;20.72;100.00;101258.50;5054642;28;20191;-74
2023/06/26 03:40:04;;;;;;;11.23;10.13;;;;;;;20.58;100.00;101242.81;5056214;28;20581;-73
2023/06/26 03:42:30;;;;;;;11.07;9.90;;;;;;;21.09;100.00;101333.31;5057256;28;20191;-73
2023/06/26 03:44:55;;;;;;;11.50;10.40;;;;;;;20.58;100.00;101251.81;5055494;28;20469;-73
2023/06/26 03:47:21;;;;;;;11.80;10.23;;;;;;;20.26;100.00;101189.03;5057052;28;20187;-73
2023/06/26 03:49:46;;;;;;;12.40;10.27;;;;;;;20.68;100.00;101291.97;5055901;28;20666;-73
2023/06/26 03:52:11;;;;;;;11.30;10.10;;;;;;;20.84;100.00;101322.97;5058837;28;20269;-73
2023/06/26 03:54:37;;;;;;;10.93;9.70;;;;;;;21.02;100.00;101341.72;5056154;28;20187;-73
2023/06/26 03:57:02;;;;;;;11.47;10.40;;;;;;;21.11;100.00;101342.88;5057907;28;20187;-73
2023/06/26 03:59:28;;;;;;;12.00;10.53;;;;;;;20.37;100.00;101230.84;5055874;28;20188;-73
2023/06/26 04:01:53;;;;;;;14.90;10.83;;;;;;;20.82;100.00;101344.19;5089167;28;20562;-73
2023/06/26 04:04:19;;;;;;;16.13;10.50;;;;;;;20.74;100.00;101319.06;5055663;28;20569;-73
2023/06/26 04:06:44;;;;;;;13.73;10.23;;;;;;;20.68;100.00;101297.41;5053775;28;20187;-73
2023/06/26 04:09:09;;;;;;;11.00;9.90;;;;;;;20.12;100.00;101204.09;5054499;28;20180;-73
2023/06/26 04:11:35;;;;;;;11.67;10.07;;;;;;;21.22;100.00;101361.00;5052455;28;20709;-73
2023/06/26 04:14:00;;;;;;;11.50;10.03;;;;;;;20.89;100.00;101296.59;5054368;28;20186;-73
2023/06/26 04:16:26;;;;;;;10.60;9.47;;;;;;;21.48;100.00;101358.56;5057281;28;20183;-74
2023/06/26 04:18:52;;;;;;;12.40;10.03;;;;;;;21.33;100.00;101322.94;5088233;28;20191;-73
2023/06/26 04:21:18;;;;;;;10.50;9.60;;;;;;;20.32;100.00;101155.31;5054718;28;20200;-73
2023/06/26 04:23:43;;;;;;;11.07;9.23;;;;;;;21.15;100.00;101261.38;5055587;28;20451;-73
2023/06/26 04:26:14;;;;;;;11.47;10.33;;;;;;;21.69;100.00;101343.19;5054630;28;20187;-73
2023/06/26 04:28:39;;;;;;;11.63;10.43;;;;;;;21.51;100.00;101284.34;5055455;28;20654;-73
2023/06/26 04:31:05;;;;;;;11.77;10.00;;;;;;;21.90;100.00;101338.72;5055536;28;20446;-72
2023/06/26 04:33:31;;;;;;;13.07;9.90;;;;;;;21.85;100.00;101336.75;5055567;28;20202;-73
2023/06/26 04:35:56;;;;;;;13.93;11.60;;;;;;;21.79;100.00;101302.31;5056959;28;20179;-73
2023/06/26 04:38:22;;;;;;;13.20;10.30;;;;;;;21.46;100.00;101256.19;5055541;28;20532;-73
2023/06/26 04:40:48;;;;;;;14.53;11.30;;;;;;;21.70;100.00;101290.25;5052252;28;21996;-72
2023/06/26 04:43:14;;;;;;;13.20;10.43;;;;;;;21.84;100.00;101309.69;5053093;28;20192;-73
2023/06/26 04:45:40;;;;;;;12.73;9.93;;;;;;;21.87;100.00;101318.22;5054926;28;20465;-72
2023/06/26 04:48:09;;;;;;;11.80;10.70;;;;;;;21.86;100.00;101316.53;5054190;28;20442;-73
2023/06/26 04:50:35;;;;;;;16.47;12.17;;;;;;;21.73;100.00;101286.16;5050416;28;20697;-72
2023/06/26 04:53:01;;;;;;;13.90;10.10;;;;;;;21.98;100.00;101315.53;5051017;28;22181;-73
2023/06/26 04:55:27;;;;;;;12.10;10.90;;;;;;;21.93;100.00;101301.84;5053160;28;20452;-72
2023/06/26 04:57:52;;;;;;;13.50;10.50;;;;;;;21.41;100.00;101205.16;5053703;28;20438;-73
2023/06/26 05:00:18;;;;;;;15.33;11.17;;;;;;;22.03;100.00;101300.00;5052582;28;20184;-72
2023/06/26 05:02:44;;;;;;;11.40;10.20;;;;;;;21.81;100.00;101253.72;5051591;28;20206;-72
2023/06/26 05:05:10;;;;;;;12.63;10.23;;;;;;;21.80;100.00;101246.59;5085550;28;20504;-74
2023/06/26 05:07:36;;;;;;;10.73;9.63;;;;;;;21.96;100.00;101255.72;5052046;28;20210;-73
2023/06/26 05:10:01;;;;;;;9.63;8.73;;;;;;;21.87;100.00;101208.13;5050710;28;21011;-73
2023/06/26 05:12:26;;;;;;;10.30;9.30;;;;;;;22.10;100.00;101247.84;5052541;28;20199;-72
2023/06/26 05:14:52;;;;;;;10.70;9.60;;;;;;;21.74;100.00;101179.41;5052459;28;20180;-73
2023/06/26 05:17:17;;;;;;;10.23;9.23;;;;;;;21.52;100.00;101160.44;5053715;28;20180;-72
2023/06/26 05:19:43;;;;;;;11.10;9.43;;;;;;;22.37;100.00;101264.13;5055021;28;20199;-73
2023/06/26 05:22:09;;;;;;;12.80;10.10;;;;;;;22.19;100.00;101218.16;5055654;28;20319;-73
2023/06/26 05:24:38;;;;;;;11.20;9.67;;;;;;;21.96;100.00;101209.28;5054713;28;20241;-73
2023/06/26 05:27:04;;;;;;;12.10;9.90;;;;;;;22.15;100.00;101244.34;5054332;28;20450;-73
2023/06/26 05:29:33;;;;;;;10.87;9.77;;;;;;;22.11;100.00;101242.13;5053509;28;20437;-75
2023/06/26 05:31:59;;;;;;;10.07;9.07;;;;;;;22.02;100.00;101237.47;5052334;28;20467;-73
2023/06/26 05:34:28;;;;;;;10.50;9.43;;;;;;;22.25;100.00;101267.09;5062164;28;20887;-74
2023/06/26 05:36:57;;;;;;;9.60;8.00;;;;;;;21.53;100.00;101153.09;5053880;28;20426;-73
2023/06/26 05:39:23;;;;;;;9.53;8.20;;;;;;;21.49;100.00;101149.25;5052463;28;20836;-74
2023/06/26 05:41:49;;;;;;;11.60;9.23;;;;;;;22.17;100.00;101264.88;5051156;28;20906;-75
2023/06/26 05:44:14;;;;;;;15.07;9.53;;;;;;;21.82;100.00;101206.22;5053101;28;20559;-74
2023/06/26 05:46:39;;;;;;;11.50;8.67;;;;;;;21.68;100.00;101199.59;5052705;28;20187;-74
2023/06/26 05:49:05;;;;;;;11.60;9.03;;;;;;;21.99;100.00;101265.31;5054095;28;20221;-74
2023/06/26 05:51:31;;;;;;;13.43;8.47;;;;;;;22.34;100.00;101319.34;5053892;28;20199;-74
2023/06/26 05:53:56;;;;;;;9.07;8.10;;;;;;;22.30;100.00;101319.03;5054213;28;20191;-75
2023/06/26 05:56:22;;;;;;;19.43;8.50;;;;;;;21.63;100.00;101226.84;5084707;28;20237;-75
2023/06/26 05:58:48;;;;;;;13.20;8.87;;;;;;;22.21;100.00;101342.47;5052535;28;20191;-77
2023/06/26 06:01:13;;;;;;;12.87;9.03;;;;;;;;;;5052658;28;20234;-76
2023/06/26 06:03:40;;;;;;;13.80;9.60;;;;;;;21.69;100.00;101326.78;5052607;28;20808;-74
2023/06/26 06:06:05;;;;;;;17.63;10.80;;;;;;;21.64;100.00;101352.16;5051820;28;20186;-75
2023/06/26 06:08:31;;;;;;;21.33;12.03;;;;;;;19.94;100.00;101135.28;5089513;28;20993;-74
2023/06/26 06:10:59;;;;;;;16.00;11.37;;;;;;;21.10;100.00;101384.06;5056478;28;20217;-75
2023/06/26 06:13:25;;;;;;;16.10;12.40;;;;;;;21.38;100.00;101478.53;5053979;28;20197;-73
2023/06/26 06:15:50;;;;;;;26.50;12.00;;;;;;;21.10;100.00;101480.34;5057486;28;20421;-73
2023/06/26 06:18:16;;;;;;;17.30;10.40;;;;;;;21.07;100.00;101480.03;5053454;28;20183;-75
2023/06/26 06:20:41;;;;;;;24.63;9.80;;;;;;;20.82;100.00;101502.34;5053169;28;20206;-76
2023/06/26 06:23:07;;;;;;;16.97;7.80;;;;;;;20.01;100.00;101429.97;5052994;28;20188;-74
2023/06/26 06:25:32;;;;;;;12.63;7.20;;;;;;;20.47;100.00;101452.47;5050396;28;20211;-74
2023/06/26 06:27:57;;;;;;;12.80;7.10;;;;;;;20.81;100.00;101497.97;5052205;28;20199;-74
2023/06/26 06:30:23;;;;;;;11.80;6.00;;;;;;;20.74;100.00;101550.75;5053033;28;20187;-74
2023/06/26 06:32:51;;;;;;;15.93;5.97;;;;;;;20.24;100.00;101524.31;5053857;28;20199;-74
2023/06/26 06:35:18;;;;;;;14.63;6.70;;;;;;;20.48;100.00;101594.97;5053104;28;20588;-74
2023/06/26 06:37:43;;;;;;;12.63;5.60;;;;;;;20.82;100.00;101638.66;5055430;28;20480;-75
2023/06/26 06:40:10;;;;;;;16.33;5.80;;;;;;;20.76;100.00;101643.19;5053120;28;20454;-74
2023/06/26 06:42:36;;;;;;;13.77;5.87;;;;;;;20.37;100.00;101604.06;5050433;28;20210;-73
2023/06/26 06:45:02;;;;;;;16.40;4.70;;;;;;;20.29;100.00;101632.53;5052202;28;20473;-73
2023/06/26 06:47:28;;;;;;;13.77;4.80;;;;;;;20.03;100.00;101610.25;5068724;28;20187;-73
2023/06/26 06:49:54;;;;;;;15.10;4.60;;;;;;;20.30;100.00;101637.72;5052638;28;20442;-74
2023/06/26 06:52:19;;;;;;;12.60;4.67;;;;;;;20.63;100.00;101644.34;5053357;28;20222;-74
2023/06/26 06:54:58;;;;;;;12.27;4.40;;;;;;;20.70;100.00;101628.66;5056121;28;20188;-74
2023/06/26 06:57:24;;;;;;;17.97;4.17;;;;;;;19.96;100.00;101546.13;5058532;28;20180;-74
2023/06/26 06:59:49;;;;;;;11.03;4.43;;;;;;;20.39;100.00;101613.63;5056246;28;20517;-74
2023/06/26 07:02:18;;;;;;;11.20;4.33;;;;;;;20.41;100.00;101635.19;5055122;28;20944;-72
2023/06/26 07:04:43;;;;;;;10.57;3.30;;;;;;;20.67;100.00;101666.50;5055585;28;20219;-73
2023/06/26 07:07:09;;;;;;;15.57;4.63;;;;;;;19.35;100.00;101410.56;5056717;28;20509;-71
2023/06/26 07:09:36;;;;;;;17.13;4.80;;;;;;;20.30;100.00;101547.81;5055690;28;20196;-74
2023/06/26 07:12:02;;;;;;;13.00;3.83;;;;;;;20.87;100.00;101644.19;5053406;28;20210;-73
2023/06/26 07:14:28;;;;;;;11.53;3.40;;;;;;;20.89;100.00;101637.41;5054522;28;20828;-73
2023/06/26 07:16:54;;;;;;;7.80;3.20;;;;;;;21.09;100.00;101631.47;5054839;28;20441;-74
2023/06/26 07:19:19;;;;;;;16.10;3.10;;;;;;;20.84;100.00;101581.97;5054603;28;20188;-72
2023/06/26 07:21:46;;;;;;;10.20;2.87;;;;;;;20.20;100.00;101471.41;5055198;28;20208;-74
2023/06/26 07:24:11;;;;;;;14.30;3.20;;;;;;;20.00;100.00;101458.28;5054842;28;20207;-75
2023/06/26 07:26:37;;;;;;;13.03;3.23;;;;;;;20.88;100.00;101621.28;5056623;28;20941;-72
2023/06/26 07:29:02;;;;;;;11.60;2.80;;;;;;;19.78;100.00;101439.09;5054882;28;20265;-73
2023/06/26 07:31:28;;;;;;;8.60;3.10;;;;;;;20.29;100.00;101546.19;5056896;28;20286;-72
2023/06/26 07:33:53;;;;;;;10.13;3.07;;;;;;;20.35;100.00;101565.34;5055439;28;20303;-73
2023/06/26 07:36:19;;;;;;;10.10;3.17;;;;;;;20.84;100.00;101618.25;5056955;28;20192;-74
2023/06/26 07:38:44;;;;;;;11.93;2.80;;;;;;;20.76;100.00;101596.84;5086020;28;20199;-72
2023/06/26 07:41:09;;;;;;;12.90;3.80;;;;;;;20.82;100.00;101556.84;5054756;28;20634;-75
2023/06/26 07:43:35;;;;;;;9.80;3.43;;;;;;;20.78;100.00;101553.81;5055433;28;20184;-73
2023/06/26 07:46:00;;;;;;;11.03;3.00;;;;;;;19.93;100.00;101445.88;5056280;28;20657;-73
2023/06/26 07:48:26;;;;;;;15.13;4.73;;;;;;;20.14;100.00;101475.13;5056256;28;20190;-73
2023/06/26 07:50:51;;;;;;;8.63;2.27;;;;;;;20.87;100.00;101587.75;5056396;28;20202;-75
2023/06/26 07:53:17;;;;;;;11.03;2.60;;;;;;;21.11;100.00;101579.38;5058018;28;20693;-73
2023/06/26 07:55:43;;;;;;;13.27;3.37;;;;;;;21.24;100.00;101573.56;5053539;28;20222;-75
2023/06/26 07:58:09;;;;;;;10.30;3.00;;;;;;;20.70;100.00;101510.63;5054645;28;20293;-73
2023/06/26 08:00:34;;;;;;;6.57;2.23;;;;;;;20.51;100.00;101442.72;5053595;28;20204;-76
2023/06/26 08:03:00;;;;;;;11.80;2.60;;;;;;;20.52;100.00;101468.94;5054462;28;20430;-72
2023/06/26 08:05:25;;;;;;;9.13;2.33;;;;;;;20.21;100.00;101406.84;5064048;28;20203;-74
2023/06/26 08:07:50;;;;;;;9.17;3.00;;;;;;;21.02;100.00;101551.69;5056565;28;20240;-73
2023/06/26 08:10:16;;;;;;;11.97;2.80;;;;;;;20.99;100.00;101558.47;5052890;28;20195;-75
2023/06/26 08:12:44;;;;;;;9.90;2.27;;;;;;;21.16;100.00;101557.63;5054055;28;20188;-74
2023/06/26 08:15:10;;;;;;;8.17;2.30;;;;;;;21.28;100.00;101558.31;5055155;28;20191;-74
2023/06/26 08:17:36;;;;;;;10.17;2.43;;;;;;;20.90;100.00;101519.09;5054404;28;20425;-75
2023/06/26 08:20:02;;;;;;;5.87;1.83;;;;;;;20.81;100.00;101512.41;5053852;28;20443;-73
2023/06/26 08:22:28;;;;;;;9.47;2.10;;;;;;;20.67;100.00;101517.38;5054525;28;20611;-73
2023/06/26 08:24:53;;;;;;;6.70;2.13;;;;;;;21.05;100.00;101539.47;5054649;28;20222;-73
2023/06/26 08:27:18;;;;;;;6.80;2.17;;;;;;;21.17;100.00;101556.53;5056766;28;20667;-73
2023/06/26 08:29:44;;;;;;;5.60;2.23;;;;;;;19.72;100.00;101325.78;5056357;28;20187;-73
2023/06/26 08:32:09;;;;;;;5.67;2.17;;;;;;;21.23;100.00;101547.34;5055521;28;20215;-72
2023/06/26 08:34:35;;;;;;;8.07;2.40;;;;;;;21.28;100.00;101541.13;5055256;28;20844;-73
2023/06/26 08:37:00;;;;;;;7.50;2.23;;;;;;;20.78;100.00;101512.91;5054595;28;20643;-73
2023/06/26 08:39:25;;;;;;;8.10;2.40;;;;;;;20.93;100.00;101531.41;5053428;28;20195;-74
2023/06/26 08:41:51;;;;;;;13.23;2.00;;;;;;;20.93;100.00;101564.13;5055328;28;21279;-74
2023/06/26 08:44:17;;;;;;;6.77;1.80;;;;;;;21.12;100.00;101565.50;5054427;28;20204;-73
2023/06/26 08:46:43;;;;;;;6.60;2.20;;;;;;;20.52;100.00;101514.41;5055510;28;20591;-73
2023/06/26 08:49:20;;;;;;;7.67;2.47;;;;;;;20.85;100.00;101581.72;5055202;28;20270;-73
2023/06/26 08:51:57;;;;;;;5.80;1.80;;;;;;;20.77;100.00;101513.97;5056819;28;20445;-74
2023/06/26 08:54:28;;;;;;;9.00;1.97;;;;;;;21.13;100.00;101569.84;5053217;28;20947;-73
2023/06/26 08:56:55;;;;;;;12.00;2.00;;;;;;;20.76;100.00;101548.59;5053933;28;20433;-73
2023/06/26 08:59:21;;;;;;;6.20;1.90;;;;;;;20.53;100.00;101508.72;5053890;28;20430;-74
2023/06/26 09:01:47;;;;;;;7.73;1.77;;;;;;;21.32;100.00;101599.56;5054575;28;20437;-74
2023/06/26 09:04:14;;;;;;;7.40;1.80;;;;;;;20.46;100.00;101482.72;5055173;28;20461;-74
2023/06/26 09:06:39;;;;;;;4.10;2.10;;;;;;;21.18;100.00;101594.50;5055667;28;20552;-75
2023/06/26 09:09:05;;;;;;;6.13;2.00;;;;;;;20.84;100.00;101609.25;5056746;28;20418;-74
2023/06/26 09:11:30;;;;;;;6.27;2.03;;;;;;;20.70;100.00;101557.78;5053478;28;20203;-74
2023/06/26 09:13:55;;;;;;;7.03;1.90;;;;;;;19.72;100.00;101423.75;5053692;28;20210;-74
2023/06/26 09:16:28;;;;;;;6.20;1.77;;;;;;;21.12;100.00;101621.97;5053465;28;20256;-74
2023/06/26 09:18:55;;;;;;;9.13;2.13;;;;;;;21.33;100.00;101604.78;5053064;28;20241;-74
2023/06/26 09:21:21;;;;;;;3.73;1.80;;;;;;;21.26;100.00;101606.84;5052804;28;20465;-75
2023/06/26 09:23:47;;;;;;;5.03;2.03;;;;;;;20.11;100.00;101464.72;5055154;28;20433;-74
2023/06/26 09:26:14;;;;;;;11.63;2.50;;;;;;;21.02;100.00;101632.69;5054269;28;20696;-74
2023/06/26 09:28:43;;;;;;;5.13;1.73;;;;;;;21.23;100.00;101612.81;5054812;28;20273;-75
2023/06/26 09:31:10;;;;;;;6.87;1.60;;;;;;;20.07;100.00;101418.06;5053079;28;20464;-74
2023/06/26 09:33:36;;;;;;;6.83;2.03;;;;;;;21.05;100.00;101618.56;5051826;28;20536;-73
2023/06/26 09:36:19;;;;;;;14.07;2.43;;;;;;;21.23;100.00;101615.53;5054526;28;20474;-73
2023/06/26 09:38:45;;;;;;;4.53;1.43;;;;;;;21.32;100.00;101605.88;5053774;28;20943;-77
2023/06/26 09:41:10;;;;;;;3.77;1.57;;;;;;;20.19;100.00;101445.25;5053606;28;20465;-74
2023/06/26 09:43:46;;;;;;;6.17;1.73;;;;;;;21.57;100.00;101620.94;5054144;28;20199;-74
2023/06/26 09:46:24;;;;;;;10.20;2.47;;;;;;;20.64;100.00;101522.53;5055831;28;20183;-75
2023/06/26 09:48:50;;;;;;;5.83;1.40;;;;;;;21.12;100.00;101617.31;5055694;28;20414;-74
2023/06/26 09:51:17;;;;;;;7.93;1.80;;;;;;;20.83;100.00;101536.69;5052169;28;20974;-75
2023/06/26 09:53:43;;;;;;;8.17;2.43;;;;;;;20.63;100.00;101501.81;5053908;28;20196;-74
2023/06/26 09:56:17;;;;;;;5.87;2.30;;;;;;;21.02;100.00;101569.97;5052804;28;20572;-74
2023/06/26 09:58:44;;;;;;;7.80;2.30;;;;;;;21.42;100.00;101597.03;5053630;28;20209;-74
2023/06/26 10:01:09;;;;;;;6.20;1.63;;;;;;;21.59;100.00;101640.63;5086732;28;20459;-75
2023/06/26 10:03:35;;;;;;;6.63;2.50;;;;;;;21.32;100.00;101641.34;5054159;28;20426;-73
2023/06/26 10:06:02;;;;;;;4.33;1.80;;;;;;;21.47;100.00;101648.94;5055223;28;20231;-73
2023/06/26 10:08:29;;;;;;;4.20;1.93;;;;;;;20.51;100.00;101570.81;5086256;28;20285;-73
2023/06/26 10:10:56;;;;;;;6.40;2.30;;;;;;;20.08;100.00;101501.44;5052623;28;20458;-75
2023/06/26 10:13:27;;;;;;;8.13;1.80;;;;;;;21.02;100.00;101668.16;5051053;28;20438;-74
2023/06/26 10:15:54;;;;;;;4.23;2.23;;;;;;;21.07;100.00;101654.59;5052889;28;20442;-75
2023/06/26 10:18:23;;;;;;;5.07;2.10;;;;;;;21.19;100.00;101638.97;5053154;28;20437;-74
2023/06/26 10:20:51;;;;;;;4.70;1.73;;;;;;;21.18;100.00;101635.41;5053853;28;20452;-74
2023/06/26 10:23:19;;;;;;;5.03;2.10;;;;;;;21.47;100.00;101626.28;5054109;28;20679;-76
2023/06/26 10:25:47;;;;;;;4.23;2.23;;;;;;;20.58;100.00;101508.00;5053973;28;20456;-76
2023/06/26 10:28:15;;;;;;;4.37;2.00;;;;;;;21.57;100.00;101650.97;5057655;28;20898;-75
2023/06/26 10:30:43;;;;;;;8.20;2.20;;;;;;;20.75;100.00;101576.94;5056188;28;20986;-73
2023/06/26 10:33:09;;;;;;;4.23;1.93;;;;;;;21.03;100.00;101664.34;5057138;28;20444;-74
2023/06/26 10:35:43;;;;;;;5.47;2.30;;;;;;;21.25;100.00;101670.69;5057008;28;20418;-74
2023/06/26 10:38:08;;;;;;;5.90;2.50;;;;;;;21.33;100.00;101670.28;5068014;28;21001;-73
2023/06/26 10:40:42;;;;;;;10.17;2.67;;;;;;;21.58;100.00;101658.06;5057045;28;20474;-73
2023/06/26 10:43:09;;;;;;;9.83;2.60;;;;;;;21.38;100.00;101648.56;5058726;28;20179;-73
2023/06/26 10:45:39;;;;;;;8.10;2.60;;;;;;;21.12;100.00;101608.31;5058340;28;20481;-75
2023/06/26 10:48:04;;;;;;;4.63;2.23;;;;;;;21.55;100.00;101656.72;5057073;28;20533;-75
2023/06/26 10:50:30;;;;;;;7.73;2.73;;;;;;;21.63;100.00;101675.34;5056022;28;20516;-75
2023/06/26 10:53:11;;;;;;;9.63;2.70;;;;;;;21.28;100.00;101675.66;5056167;28;20234;-74
2023/06/26 10:55:37;;;;;;;8.30;2.53;;;;;;;21.18;100.00;101646.31;5064987;28;20439;-75
2023/06/26 10:58:03;;;;;;;11.43;2.90;;;;;;;21.27;100.00;101690.38;5057008;28;20562;-73
2023/06/26 11:00:28;;;;;;;4.27;2.40;;;;;;;20.42;100.00;101516.94;5057418;28;20425;-76
2023/06/26 11:02:54;;;;;;;4.07;1.97;;;;;;;21.02;100.00;101602.69;5056367;28;20199;-73
2023/06/26 11:05:27;;;;;;;6.63;2.30;;;;;;;21.05;100.00;101615.84;5058372;28;20211;-73
2023/06/26 11:08:42;;;;;;;9.93;2.47;;;;;;;21.46;100.00;101703.78;5055738;28;20188;-75